createdAt,value
2023-02-19T00:01:54.374Z,8.15
2023-02-19T00:06:57.356Z,6.65
2023-02-19T00:12:00.255Z,7.40
2023-02-19T00:17:03.208Z,8.02
2023-02-19T00:22:05.933Z,8.07
2023-02-19T00:27:08.761Z,6.65
2023-02-19T00:32:11.574Z,9.13
2023-02-19T00:37:14.326Z,6.40
2023-02-19T00:42:17.073Z,8.27
2023-02-19T00:47:20.125Z,7.47
2023-02-19T00:52:23.436Z,8.43
2023-02-19T00:57:26.265Z,8.30
2023-02-19T01:02:29.101Z,9.07
2023-02-19T01:07:35.338Z,12.30
2023-02-19T01:12:38.259Z,12.20
2023-02-19T01:17:40.963Z,12.30
2023-02-19T01:22:43.803Z,14.45
2023-02-19T01:27:47.070Z,13.57
2023-02-19T01:32:49.836Z,12.25
2023-02-19T01:37:54.673Z,15.68
2023-02-19T01:42:57.618Z,11.52
2023-02-19T01:48:27.905Z,10.82
2023-02-19T01:53:38.228Z,12.02
2023-02-19T01:58:41.442Z,10.48
2023-02-19T02:03:47.398Z,7.95
2023-02-19T02:09:14.584Z,8.43
2023-02-19T02:14:20.794Z,9.10
2023-02-19T02:19:27.386Z,7.10
2023-02-19T02:24:34.742Z,8.30
2023-02-19T02:30:05.956Z,6.95
2023-02-19T02:35:13.609Z,10.75
2023-02-19T02:40:19.113Z,9.50
2023-02-19T02:45:36.002Z,9.68
2023-02-19T02:51:14.138Z,9.80
2023-02-19T02:56:38.151Z,7.57
2023-02-19T03:02:14.907Z,9.02
2023-02-19T03:07:18.982Z,7.95
2023-02-19T03:12:42.414Z,8.90
2023-02-19T03:18:11.923Z,8.40
2023-02-19T03:23:18.098Z,9.10
2023-02-19T03:28:43.225Z,9.20
2023-02-19T03:33:54.039Z,8.27
2023-02-19T03:39:04.836Z,9.63
2023-02-19T03:44:37.327Z,9.20
2023-02-19T03:49:40.720Z,9.73
2023-02-19T03:55:02.741Z,10.65
2023-02-19T04:05:30.347Z,10.55
2023-02-19T04:10:34.226Z,9.00
2023-02-19T04:20:45.906Z,12.23
2023-02-19T04:25:52.528Z,11.80
2023-02-19T04:30:55.787Z,9.68
2023-02-19T04:35:58.772Z,9.80
2023-02-19T04:41:01.575Z,10.98
2023-02-19T04:46:04.477Z,8.68
2023-02-19T04:51:08.843Z,9.02
2023-02-19T04:56:15.150Z,8.63
2023-02-19T05:01:18.028Z,8.65
2023-02-19T05:06:20.835Z,8.75
2023-02-19T05:11:24.214Z,9.55
2023-02-19T05:16:26.962Z,9.40
2023-02-19T05:21:29.981Z,10.30
2023-02-19T05:26:32.744Z,11.20
2023-02-19T05:31:35.734Z,11.90
2023-02-19T05:36:39.882Z,14.35
2023-02-19T05:41:42.667Z,11.95
2023-02-19T05:46:45.603Z,11.05
2023-02-19T05:51:51.665Z,13.63
2023-02-19T05:56:54.220Z,12.25
2023-02-19T06:01:58.505Z,11.32
2023-02-19T06:07:01.192Z,12.32
2023-02-19T06:12:04.162Z,15.27
2023-02-19T06:17:06.952Z,15.57
2023-02-19T06:22:10.583Z,17.00
2023-02-19T06:27:13.750Z,17.55
2023-02-19T06:32:17.421Z,18.60
2023-02-19T06:37:20.461Z,15.80
2023-02-19T06:42:23.259Z,15.20
2023-02-19T06:47:26.289Z,16.65
2023-02-19T06:52:29.213Z,17.23
2023-02-19T06:57:32.408Z,17.42
2023-02-19T07:02:35.181Z,21.10
2023-02-19T07:07:38.148Z,17.27
2023-02-19T07:12:41.013Z,19.33
2023-02-19T07:17:43.848Z,17.67
2023-02-19T07:22:46.621Z,17.08
2023-02-19T07:27:49.657Z,17.13
2023-02-19T07:32:52.504Z,16.42
2023-02-19T07:37:55.566Z,14.80
2023-02-19T07:43:00.653Z,14.48
2023-02-19T07:48:03.950Z,17.20
2023-02-19T07:53:06.865Z,18.13
2023-02-19T07:58:09.595Z,16.50
2023-02-19T08:03:12.540Z,15.05
2023-02-19T08:08:16.552Z,15.27
2023-02-19T08:13:19.593Z,13.88
2023-02-19T08:18:24.600Z,19.48
2023-02-19T08:23:28.572Z,13.20
2023-02-19T08:28:31.843Z,14.45
2023-02-19T08:33:35.109Z,14.63
2023-02-19T08:38:38.136Z,17.02
2023-02-19T08:43:42.549Z,15.95
2023-02-19T08:48:45.483Z,12.40
2023-02-19T08:53:48.562Z,14.30
2023-02-19T08:58:51.532Z,11.60
2023-02-19T09:03:54.973Z,13.77
2023-02-19T09:08:57.813Z,12.60
2023-02-19T09:14:02.401Z,15.27
2023-02-19T09:19:05.420Z,11.90
2023-02-19T09:24:09.872Z,10.77
2023-02-19T09:29:19.472Z,11.70
2023-02-19T09:34:33.448Z,10.95
2023-02-19T09:39:36.991Z,12.30
2023-02-19T09:44:42.527Z,14.02
2023-02-19T09:49:52.378Z,8.88
2023-02-19T09:54:59.609Z,9.23
2023-02-19T10:00:25.928Z,7.93
2023-02-19T10:05:29.560Z,9.18
2023-02-19T10:10:37.813Z,7.72
2023-02-19T10:16:16.093Z,8.73
2023-02-19T10:21:22.886Z,11.43
2023-02-19T10:26:26.011Z,8.48
2023-02-19T10:31:32.051Z,9.13
2023-02-19T10:36:45.565Z,10.27
2023-02-19T10:41:50.900Z,12.70
2023-02-19T10:46:57.103Z,8.15
2023-02-19T10:52:29.753Z,9.30
2023-02-19T10:57:34.735Z,8.55
2023-02-19T11:02:37.627Z,10.75
2023-02-19T11:07:46.649Z,10.88
2023-02-19T11:12:52.218Z,12.70
2023-02-19T11:18:01.919Z,8.20
2023-02-19T11:23:18.285Z,9.75
2023-02-19T11:28:39.132Z,9.25
2023-02-19T11:33:49.195Z,9.55
2023-02-19T11:38:52.263Z,14.90
2023-02-19T11:44:06.970Z,10.77
2023-02-19T11:49:18.108Z,9.73
2023-02-19T11:54:54.834Z,10.52
2023-02-19T12:00:23.018Z,9.68
2023-02-19T12:05:40.078Z,13.25
2023-02-19T12:11:09.370Z,9.73
2023-02-19T12:16:26.860Z,8.98
2023-02-19T12:21:51.716Z,9.35
2023-02-19T12:27:16.329Z,10.15
2023-02-19T12:32:28.603Z,11.02
2023-02-19T12:38:00.726Z,17.48
2023-02-19T12:43:15.779Z,14.35
2023-02-19T12:48:26.242Z,12.77
2023-02-19T12:53:33.467Z,10.77
2023-02-19T12:58:43.588Z,10.45
2023-02-19T13:04:04.925Z,11.50
2023-02-19T13:09:20.090Z,9.27
2023-02-19T13:14:30.249Z,11.43
2023-02-19T13:19:33.915Z,10.13
2023-02-19T13:24:42.321Z,12.50
2023-02-19T13:30:07.139Z,8.10
2023-02-19T13:35:18.620Z,10.57
2023-02-19T13:40:37.450Z,12.50
2023-02-19T13:45:46.189Z,14.05
2023-02-19T13:50:49.271Z,10.43
2023-02-19T13:55:53.526Z,8.40
2023-02-19T14:00:56.739Z,12.02
2023-02-19T14:06:04.610Z,9.93
2023-02-19T14:11:08.773Z,9.93
2023-02-19T14:16:33.628Z,10.13
2023-02-19T14:21:39.382Z,8.80
2023-02-19T14:26:43.063Z,10.63
2023-02-19T14:31:47.260Z,10.50
2023-02-19T14:36:55.826Z,11.32
2023-02-19T14:42:03.107Z,11.50
2023-02-19T14:47:09.763Z,18.70
2023-02-19T14:52:28.780Z,18.55
2023-02-19T14:57:43.968Z,25.73
2023-02-19T15:02:46.942Z,10.52
2023-02-19T15:07:51.793Z,10.00
2023-02-19T15:12:58.226Z,14.32
2023-02-19T15:18:03.096Z,13.68
2023-02-19T15:28:39.071Z,13.80
2023-02-19T15:33:50.714Z,11.82
2023-02-19T15:38:56.317Z,12.35
2023-02-19T15:44:21.484Z,10.65
2023-02-19T15:49:37.838Z,15.23
2023-02-19T15:54:56.236Z,8.98
2023-02-19T16:00:27.601Z,11.15
2023-02-19T16:05:31.491Z,10.55
2023-02-19T16:10:34.416Z,9.82
2023-02-19T16:15:40.147Z,14.25
2023-02-19T16:20:47.780Z,10.95
2023-02-19T16:26:00.271Z,12.45
2023-02-19T16:31:06.279Z,16.55
2023-02-19T16:36:20.772Z,14.43
2023-02-19T16:41:23.746Z,16.80
2023-02-19T16:46:26.444Z,12.68
2023-02-19T16:51:29.496Z,18.75
2023-02-19T16:56:32.524Z,20.92
2023-02-19T17:01:37.134Z,17.67
2023-02-19T17:06:40.364Z,19.80
2023-02-19T17:11:43.290Z,15.73
2023-02-19T17:16:46.493Z,19.65
2023-02-19T17:21:50.367Z,13.55
2023-02-19T17:26:53.316Z,18.42
2023-02-19T17:31:56.438Z,15.10
2023-02-19T17:36:59.940Z,14.57
2023-02-19T17:42:03.489Z,18.35
2023-02-19T17:47:06.856Z,12.13
2023-02-19T17:52:10.815Z,17.77
2023-02-19T17:57:13.832Z,15.70
2023-02-19T18:02:17.143Z,15.25
2023-02-19T18:07:20.238Z,15.43
2023-02-19T18:12:25.972Z,13.75
2023-02-19T18:17:28.931Z,14.65
2023-02-19T18:22:36.742Z,12.90
2023-02-19T18:27:39.817Z,15.88
2023-02-19T18:32:42.888Z,18.63
2023-02-19T18:37:46.348Z,12.90
2023-02-19T18:43:34.245Z,18.88
2023-02-19T18:49:53.471Z,17.95
2023-02-19T19:02:29.718Z,15.60
2023-02-19T21:16:22.150Z,18.00
2023-02-19T22:35:51.326Z,16.15
2023-02-19T22:42:39.295Z,22.88
2023-02-19T23:48:06.881Z,20.98
2023-02-19T23:54:28.056Z,23.38
